createdAt,value
2018-07-24T00:01:48.107Z,20.96
2018-07-24T00:04:16.723Z,20.90
2018-07-24T00:06:45.075Z,20.83
2018-07-24T00:09:13.211Z,20.76
2018-07-24T00:11:41.859Z,20.71
2018-07-24T00:14:10.189Z,20.68
2018-07-24T00:16:38.620Z,20.63
2018-07-24T00:19:06.999Z,20.62
2018-07-24T00:21:35.630Z,20.60
2018-07-24T00:24:04.330Z,20.57
2018-07-24T00:26:32.371Z,20.56
2018-07-24T00:29:01.387Z,20.53
2018-07-24T00:31:29.640Z,20.51
2018-07-24T00:33:58.007Z,20.48
2018-07-24T00:36:26.419Z,20.45
2018-07-24T00:38:55.058Z,20.34
2018-07-24T00:41:23.452Z,20.40
2018-07-24T00:43:51.924Z,20.40
2018-07-24T00:46:20.275Z,20.35
2018-07-24T00:48:48.576Z,20.34
2018-07-24T00:51:17.071Z,20.32
2018-07-24T00:53:45.283Z,20.28
2018-07-24T00:56:13.704Z,20.24
2018-07-24T00:58:42.530Z,20.22
2018-07-24T01:01:10.911Z,20.21
2018-07-24T01:03:39.391Z,20.19
2018-07-24T01:06:07.813Z,20.09
2018-07-24T01:08:36.499Z,20.03
2018-07-24T01:11:05.000Z,19.97
2018-07-24T01:13:33.267Z,19.70
2018-07-24T01:16:01.720Z,19.90
2018-07-24T01:18:30.336Z,19.79
2018-07-24T01:20:58.733Z,19.80
2018-07-24T01:23:27.444Z,19.70
2018-07-24T01:25:56.128Z,19.64
2018-07-24T01:28:24.419Z,19.61
2018-07-24T01:30:52.870Z,19.50
2018-07-24T01:33:21.339Z,19.57
2018-07-24T01:35:49.515Z,19.49
2018-07-24T01:38:17.870Z,19.40
2018-07-24T01:40:46.567Z,19.34
2018-07-24T01:43:15.133Z,19.33
2018-07-24T01:45:43.544Z,19.30
2018-07-24T01:48:11.999Z,19.26
2018-07-24T01:50:40.664Z,19.25
2018-07-24T01:53:09.022Z,19.27
2018-07-24T01:55:37.040Z,19.27
2018-07-24T01:58:05.499Z,19.26
2018-07-24T02:00:33.955Z,19.13
2018-07-24T02:03:02.259Z,19.20
2018-07-24T02:05:30.775Z,19.19
2018-07-24T02:07:59.083Z,19.20
2018-07-24T02:10:27.804Z,19.19
2018-07-24T02:12:56.089Z,19.15
2018-07-24T02:15:24.371Z,19.13
2018-07-24T02:17:53.075Z,19.03
2018-07-24T02:20:21.735Z,19.12
2018-07-24T02:22:50.197Z,19.11
2018-07-24T02:25:18.546Z,19.10
2018-07-24T02:27:46.703Z,19.06
2018-07-24T02:30:15.194Z,19.04
2018-07-24T02:32:43.479Z,19.02
2018-07-24T02:35:11.850Z,18.99
2018-07-24T02:37:40.515Z,18.93
2018-07-24T02:40:09.270Z,18.89
2018-07-24T02:42:37.560Z,18.85
2018-07-24T02:45:06.175Z,18.82
2018-07-24T02:47:34.726Z,18.81
2018-07-24T02:50:03.148Z,18.79
2018-07-24T02:52:33.061Z,18.76
2018-07-24T02:55:02.959Z,18.74
2018-07-24T02:57:32.672Z,18.72
2018-07-24T03:00:03.045Z,18.71
2018-07-24T03:02:31.964Z,18.70
2018-07-24T03:05:00.190Z,18.69
2018-07-24T03:07:28.600Z,18.65
2018-07-24T03:09:57.412Z,18.63
2018-07-24T03:12:25.820Z,18.62
2018-07-24T03:14:54.225Z,18.62
2018-07-24T03:17:23.075Z,18.62
2018-07-24T03:19:51.483Z,18.61
2018-07-24T03:22:19.755Z,18.60
2018-07-24T03:24:48.303Z,18.42
2018-07-24T03:27:16.748Z,18.49
2018-07-24T03:29:45.084Z,18.39
2018-07-24T03:32:13.686Z,18.53
2018-07-24T03:34:41.961Z,18.48
2018-07-24T03:37:10.483Z,18.43
2018-07-24T03:39:39.622Z,18.40
2018-07-24T03:42:08.077Z,18.40
2018-07-24T03:44:36.783Z,18.40
2018-07-24T03:47:05.683Z,18.39
2018-07-24T03:49:33.882Z,18.38
2018-07-24T03:52:02.039Z,18.38
2018-07-24T03:54:30.744Z,18.37
2018-07-24T03:56:59.141Z,18.35
2018-07-24T03:59:27.651Z,18.36
2018-07-24T04:01:55.988Z,18.33
2018-07-24T04:04:24.864Z,18.32
2018-07-24T04:06:53.167Z,18.23
2018-07-24T04:09:21.645Z,18.30
2018-07-24T04:11:50.043Z,18.29
2018-07-24T04:14:18.509Z,18.28
2018-07-24T04:16:47.436Z,18.27
2018-07-24T04:19:15.932Z,18.24
2018-07-24T04:21:44.337Z,18.23
2018-07-24T04:24:13.338Z,18.20
2018-07-24T04:26:41.658Z,18.20
2018-07-24T04:29:09.960Z,18.20
2018-07-24T04:31:38.390Z,18.22
2018-07-24T04:34:06.885Z,18.16
2018-07-24T04:36:35.176Z,18.26
2018-07-24T04:39:05.452Z,18.27
2018-07-24T04:41:33.795Z,18.27
2018-07-24T04:44:02.239Z,18.26
2018-07-24T04:46:30.716Z,18.27
2018-07-24T04:48:59.167Z,18.30
2018-07-24T04:51:27.251Z,18.35
2018-07-24T04:53:55.705Z,18.39
2018-07-24T04:56:24.081Z,18.43
2018-07-24T04:58:52.708Z,18.48
2018-07-24T05:01:21.414Z,18.53
2018-07-24T05:03:49.750Z,18.58
2018-07-24T05:06:18.195Z,18.62
2018-07-24T05:08:47.149Z,18.66
2018-07-24T05:11:15.579Z,18.70
2018-07-24T05:13:43.894Z,18.67
2018-07-24T05:16:12.779Z,18.77
2018-07-24T05:18:41.467Z,18.83
2018-07-24T05:21:10.053Z,18.88
2018-07-24T05:23:38.712Z,18.94
2018-07-24T05:26:07.089Z,19.00
2018-07-24T05:28:35.488Z,19.06
2018-07-24T05:31:04.183Z,19.12
2018-07-24T05:33:32.639Z,19.16
2018-07-24T05:36:00.958Z,19.14
2018-07-24T05:38:30.032Z,19.33
2018-07-24T05:40:58.515Z,19.42
2018-07-24T05:43:26.703Z,19.50
2018-07-24T05:45:55.646Z,19.55
2018-07-24T05:48:24.259Z,19.61
2018-07-24T05:50:54.319Z,19.68
2018-07-24T05:53:23.595Z,19.71
2018-07-24T05:55:51.688Z,19.78
2018-07-24T05:58:20.176Z,19.85
2018-07-24T06:00:49.355Z,19.93
2018-07-24T06:03:17.659Z,19.97
2018-07-24T06:05:45.693Z,20.13
2018-07-24T06:08:14.582Z,20.15
2018-07-24T06:10:43.086Z,20.15
2018-07-24T06:13:11.271Z,20.20
2018-07-24T06:15:39.609Z,20.35
2018-07-24T06:18:07.851Z,20.50
2018-07-24T06:20:35.896Z,20.62
2018-07-24T06:23:04.297Z,20.67
2018-07-24T06:25:32.422Z,20.77
2018-07-24T06:28:00.699Z,20.87
2018-07-24T06:30:29.031Z,21.03
2018-07-24T06:32:57.428Z,21.20
2018-07-24T06:35:26.976Z,21.37
2018-07-24T06:37:57.573Z,21.59
2018-07-24T06:40:26.324Z,21.72
2018-07-24T06:42:54.709Z,21.80
2018-07-24T06:45:23.228Z,22.00
2018-07-24T06:47:51.247Z,22.08
2018-07-24T06:50:19.435Z,22.00
2018-07-24T06:52:47.985Z,22.31
2018-07-24T06:55:16.284Z,22.55
2018-07-24T06:57:45.087Z,22.77
2018-07-24T07:00:13.639Z,22.94
2018-07-24T07:02:41.995Z,22.99
2018-07-24T07:05:10.412Z,23.14
2018-07-24T07:07:38.616Z,23.36
2018-07-24T07:10:06.972Z,23.46
2018-07-24T07:12:35.572Z,23.64
2018-07-24T07:15:04.224Z,23.71
2018-07-24T07:17:32.338Z,24.03
2018-07-24T07:20:00.777Z,24.37
2018-07-24T07:22:28.848Z,24.73
2018-07-24T07:24:57.222Z,24.98
2018-07-24T07:27:25.343Z,25.16
2018-07-24T07:29:53.459Z,25.36
2018-07-24T07:32:21.553Z,25.32
2018-07-24T07:34:49.507Z,25.68
2018-07-24T07:37:17.928Z,26.00
2018-07-24T07:39:45.986Z,26.31
2018-07-24T07:42:14.112Z,26.56
2018-07-24T07:44:42.552Z,26.86
2018-07-24T07:47:10.986Z,27.19
2018-07-24T07:49:39.087Z,27.23
2018-07-24T07:52:07.911Z,27.12
2018-07-24T07:54:36.590Z,27.28
2018-07-24T07:57:04.608Z,27.67
2018-07-24T07:59:32.789Z,27.93
2018-07-24T08:02:01.313Z,28.23
2018-07-24T08:04:29.715Z,28.48
2018-07-24T08:06:58.191Z,28.71
2018-07-24T08:09:27.096Z,28.98
2018-07-24T08:11:55.756Z,29.17
2018-07-24T08:14:24.415Z,29.43
2018-07-24T08:16:53.128Z,29.54
2018-07-24T08:19:21.707Z,29.69
2018-07-24T08:21:51.309Z,29.73
2018-07-24T08:24:20.065Z,29.84
2018-07-24T08:26:48.972Z,29.95
2018-07-24T08:29:17.339Z,30.15
2018-07-24T08:31:45.446Z,30.38
2018-07-24T08:34:13.525Z,30.44
2018-07-24T08:36:41.623Z,30.44
2018-07-24T08:39:12.475Z,30.48
2018-07-24T08:41:41.726Z,30.50
2018-07-24T08:44:10.156Z,30.62
2018-07-24T08:46:38.498Z,30.68
2018-07-24T08:49:07.711Z,30.78
2018-07-24T08:51:37.275Z,30.56
2018-07-24T08:54:06.723Z,31.13
2018-07-24T08:56:39.201Z,31.34
2018-07-24T08:59:07.878Z,31.43
2018-07-24T09:01:36.852Z,31.60
2018-07-24T09:04:05.673Z,31.64
2018-07-24T09:06:38.207Z,31.69
2018-07-24T09:09:10.253Z,31.83
2018-07-24T09:11:40.810Z,31.68
2018-07-24T09:14:21.508Z,31.60
2018-07-24T09:16:52.869Z,31.88
2018-07-24T09:19:22.460Z,32.09
2018-07-24T09:21:51.106Z,32.33
2018-07-24T09:24:19.886Z,32.45
2018-07-24T09:26:48.478Z,32.61
2018-07-24T09:29:24.495Z,32.84
2018-07-24T09:31:58.062Z,33.05
2018-07-24T09:34:29.236Z,33.06
2018-07-24T09:37:01.001Z,32.97
2018-07-24T09:39:41.985Z,33.10
2018-07-24T09:42:16.018Z,33.44
2018-07-24T09:44:45.726Z,33.49
2018-07-24T09:47:18.878Z,33.87
2018-07-24T09:49:54.830Z,34.07
2018-07-24T09:52:30.569Z,34.17
2018-07-24T09:55:00.727Z,34.23
2018-07-24T09:57:29.980Z,34.34
2018-07-24T09:59:59.489Z,34.18
2018-07-24T10:02:38.427Z,33.97
2018-07-24T10:05:07.115Z,33.83
2018-07-24T10:07:36.803Z,34.01
2018-07-24T10:10:07.332Z,33.93
2018-07-24T10:12:35.796Z,34.24
2018-07-24T10:15:05.575Z,34.41
2018-07-24T10:17:34.837Z,34.57
2018-07-24T10:20:03.273Z,34.70
2018-07-24T10:22:35.097Z,34.81
2018-07-24T10:25:03.489Z,34.89
2018-07-24T10:27:31.561Z,35.01
2018-07-24T10:30:01.612Z,34.97
2018-07-24T10:32:30.208Z,35.36
2018-07-24T10:34:59.621Z,35.57
2018-07-24T10:37:32.121Z,35.73
2018-07-24T10:40:00.956Z,35.92
2018-07-24T10:42:31.837Z,35.66
2018-07-24T10:44:59.970Z,35.56
2018-07-24T10:47:28.803Z,35.46
2018-07-24T10:49:58.114Z,35.42
2018-07-24T10:52:27.002Z,35.35
2018-07-24T10:54:55.612Z,34.89
2018-07-24T10:57:25.323Z,34.89
2018-07-24T10:59:58.796Z,35.08
2018-07-24T11:02:28.235Z,35.31
2018-07-24T11:05:02.328Z,35.52
2018-07-24T11:07:33.633Z,35.21
2018-07-24T11:10:01.794Z,35.19
2018-07-24T11:12:29.921Z,35.39
2018-07-24T11:14:58.837Z,35.29
2018-07-24T11:17:28.646Z,35.63
2018-07-24T11:19:57.187Z,36.03
2018-07-24T11:22:28.983Z,36.21
2018-07-24T11:25:00.561Z,36.03
2018-07-24T11:27:29.384Z,35.69
2018-07-24T11:29:58.946Z,35.79
2018-07-24T11:32:27.469Z,36.25
2018-07-24T11:34:59.035Z,36.56
2018-07-24T11:37:27.241Z,36.72
2018-07-24T11:39:55.515Z,36.70
2018-07-24T11:42:24.791Z,36.49
2018-07-24T11:44:55.342Z,36.04
2018-07-24T11:47:24.451Z,36.34
2018-07-24T11:49:52.519Z,36.59
2018-07-24T11:52:21.303Z,36.83
2018-07-24T11:54:49.839Z,36.98
2018-07-24T11:57:22.760Z,36.86
2018-07-24T11:59:51.067Z,36.58
2018-07-24T12:02:19.582Z,36.28
2018-07-24T12:04:48.194Z,36.05
2018-07-24T12:07:16.303Z,36.53
2018-07-24T12:09:47.185Z,36.69
2018-07-24T12:12:16.825Z,36.67
2018-07-24T12:14:46.149Z,36.15
2018-07-24T12:17:14.303Z,36.12
2018-07-24T12:19:43.434Z,35.87
2018-07-24T12:22:12.685Z,36.28
2018-07-24T12:24:52.517Z,36.05
2018-07-24T12:27:22.169Z,36.07
2018-07-24T12:29:51.886Z,35.70
2018-07-24T12:32:20.632Z,35.33
2018-07-24T12:34:49.474Z,35.32
2018-07-24T12:37:17.535Z,35.20
2018-07-24T12:39:45.696Z,35.13
2018-07-24T12:42:13.866Z,35.21
2018-07-24T12:44:42.382Z,34.89
2018-07-24T12:47:11.147Z,35.48
2018-07-24T12:49:40.184Z,36.02
2018-07-24T12:52:08.878Z,36.11
2018-07-24T12:54:37.670Z,35.88
2018-07-24T12:57:05.799Z,35.57
2018-07-24T12:59:35.365Z,35.37
2018-07-24T13:02:05.300Z,35.41
2018-07-24T13:04:33.564Z,35.82
2018-07-24T13:07:08.019Z,36.25
2018-07-24T13:09:37.454Z,36.31
2018-07-24T13:12:06.675Z,36.43
2018-07-24T13:14:34.939Z,36.39
2018-07-24T13:17:03.103Z,36.59
2018-07-24T13:19:31.605Z,36.58
2018-07-24T13:21:59.820Z,36.43
2018-07-24T13:24:27.900Z,36.27
2018-07-24T13:26:56.267Z,36.35
2018-07-24T13:29:26.468Z,36.49
2018-07-24T13:31:54.809Z,36.22
2018-07-24T13:34:23.390Z,35.99
2018-07-24T13:36:54.411Z,35.93
2018-07-24T13:39:25.953Z,36.30
2018-07-24T13:41:57.526Z,36.45
2018-07-24T13:44:26.289Z,36.32
2018-07-24T13:47:09.679Z,36.19
2018-07-24T13:49:40.945Z,36.35
2018-07-24T13:52:12.275Z,36.27
2018-07-24T13:54:42.121Z,36.24
2018-07-24T13:57:12.439Z,36.12
2018-07-24T13:59:40.940Z,36.12
2018-07-24T14:02:09.420Z,36.06
2018-07-24T14:04:38.708Z,36.04
2018-07-24T14:07:08.170Z,36.27
2018-07-24T14:09:36.370Z,36.28
2018-07-24T14:12:04.722Z,36.50
2018-07-24T14:14:34.221Z,36.50
2018-07-24T14:17:05.135Z,36.23
2018-07-24T14:19:46.649Z,35.80
2018-07-24T14:22:16.310Z,35.90
2018-07-24T14:24:45.362Z,35.53
2018-07-24T14:27:14.211Z,35.25
2018-07-24T14:29:42.894Z,34.84
2018-07-24T14:32:12.119Z,34.87
2018-07-24T14:34:44.254Z,35.01
2018-07-24T14:37:12.976Z,34.97
2018-07-24T14:39:42.912Z,34.92
2018-07-24T14:42:14.144Z,34.91
2018-07-24T14:44:43.105Z,35.20
2018-07-24T14:47:11.379Z,35.43
2018-07-24T14:49:39.899Z,35.60
2018-07-24T14:52:08.401Z,35.65
2018-07-24T14:54:36.946Z,35.83
2018-07-24T14:57:05.366Z,35.81
2018-07-24T14:59:34.079Z,35.84
2018-07-24T15:02:03.415Z,35.88
2018-07-24T15:04:31.583Z,35.94
2018-07-24T15:06:59.961Z,35.80
2018-07-24T15:09:29.988Z,35.80
2018-07-24T15:11:59.075Z,35.64
2018-07-24T15:14:30.156Z,35.47
2018-07-24T15:16:59.837Z,35.26
2018-07-24T15:19:28.481Z,35.18
2018-07-24T15:21:57.366Z,35.02
2018-07-24T15:24:27.181Z,35.04
2018-07-24T15:26:55.380Z,35.01
2018-07-24T15:29:26.379Z,35.00
2018-07-24T15:31:55.944Z,34.98
2018-07-24T15:34:24.187Z,35.00
2018-07-24T15:36:52.703Z,34.87
2018-07-24T15:39:21.265Z,35.32
2018-07-24T15:41:49.837Z,35.30
2018-07-24T15:44:18.641Z,35.38
2018-07-24T15:46:46.992Z,35.43
2018-07-24T15:49:15.388Z,35.51
2018-07-24T15:51:43.923Z,35.45
2018-07-24T15:54:12.062Z,35.31
2018-07-24T15:56:40.288Z,35.14
2018-07-24T15:59:08.831Z,35.14
2018-07-24T16:01:37.093Z,35.06
2018-07-24T16:04:07.019Z,35.15
2018-07-24T16:06:35.820Z,34.90
2018-07-24T16:09:07.020Z,34.91
2018-07-24T16:11:35.435Z,35.06
2018-07-24T16:14:03.667Z,35.05
2018-07-24T16:16:32.334Z,34.96
2018-07-24T16:19:02.101Z,34.85
2018-07-24T16:21:30.308Z,34.90
2018-07-24T16:23:59.012Z,35.02
2018-07-24T16:26:27.844Z,35.03
2018-07-24T16:28:55.994Z,35.26
2018-07-24T16:31:25.223Z,35.19
2018-07-24T16:33:53.351Z,35.10
2018-07-24T16:36:21.844Z,34.97
2018-07-24T16:38:50.149Z,34.90
2018-07-24T16:41:18.490Z,34.82
2018-07-24T16:43:46.975Z,34.79
2018-07-24T16:46:15.388Z,34.88
2018-07-24T16:48:43.522Z,34.99
2018-07-24T16:51:11.624Z,35.00
2018-07-24T16:53:40.018Z,35.05
2018-07-24T16:56:09.377Z,35.20
2018-07-24T16:58:37.599Z,35.24
2018-07-24T17:01:05.753Z,35.27
2018-07-24T17:03:34.288Z,35.21
2018-07-24T17:06:02.699Z,35.12
2018-07-24T17:08:31.217Z,34.88
2018-07-24T17:10:59.346Z,34.83
2018-07-24T17:13:28.105Z,34.75
2018-07-24T17:15:56.513Z,34.69
2018-07-24T17:18:24.616Z,34.62
2018-07-24T17:20:52.875Z,34.64
2018-07-24T17:23:20.919Z,34.64
2018-07-24T17:25:50.012Z,34.58
2018-07-24T17:28:18.394Z,34.60
2018-07-24T17:30:46.505Z,34.49
2018-07-24T17:33:14.581Z,34.42
2018-07-24T17:35:43.039Z,34.43
2018-07-24T17:38:11.229Z,34.12
2018-07-24T17:40:39.661Z,34.03
2018-07-24T17:43:07.694Z,33.92
2018-07-24T17:45:35.760Z,33.98
2018-07-24T17:48:04.441Z,33.90
2018-07-24T17:50:32.680Z,33.92
2018-07-24T17:53:01.021Z,33.81
2018-07-24T17:55:31.103Z,33.70
2018-07-24T17:57:59.540Z,33.68
2018-07-24T18:00:28.782Z,33.67
2018-07-24T18:02:57.192Z,33.65
2018-07-24T18:05:25.300Z,33.57
2018-07-24T18:07:53.838Z,33.44
2018-07-24T18:10:21.953Z,33.39
2018-07-24T18:12:50.142Z,33.38
2018-07-24T18:15:18.330Z,33.31
2018-07-24T18:17:46.657Z,33.31
2018-07-24T18:20:14.982Z,33.16
2018-07-24T18:22:43.669Z,33.03
2018-07-24T18:25:11.794Z,32.83
2018-07-24T18:27:40.057Z,32.76
2018-07-24T18:30:08.355Z,32.58
2018-07-24T18:32:36.790Z,32.42
2018-07-24T18:35:05.019Z,32.22
2018-07-24T18:37:34.761Z,31.97
2018-07-24T18:40:08.724Z,31.64
2018-07-24T18:42:41.682Z,31.70
2018-07-24T18:45:11.140Z,31.58
2018-07-24T18:47:39.531Z,31.33
2018-07-24T18:50:07.783Z,31.23
2018-07-24T18:52:36.905Z,31.18
2018-07-24T18:55:05.216Z,31.08
2018-07-24T18:57:34.071Z,31.00
2018-07-24T19:00:07.803Z,30.77
2018-07-24T19:02:38.394Z,30.79
2018-07-24T19:05:15.239Z,30.63
2018-07-24T19:07:43.787Z,30.61
2018-07-24T19:10:13.126Z,30.49
2018-07-24T19:12:41.848Z,30.45
2018-07-24T19:15:11.154Z,30.24
2018-07-24T19:17:39.531Z,30.20
2018-07-24T19:20:08.184Z,30.10
2018-07-24T19:22:36.524Z,30.08
2018-07-24T19:25:05.633Z,29.93
2018-07-24T19:27:33.875Z,29.84
2018-07-24T19:30:07.133Z,29.76
2018-07-24T19:32:35.960Z,29.64
2018-07-24T19:35:05.880Z,29.40
2018-07-24T19:37:37.341Z,29.35
2018-07-24T19:40:06.182Z,29.20
2018-07-24T19:42:36.920Z,29.08
2018-07-24T19:45:07.744Z,28.92
2018-07-24T19:47:36.967Z,28.92
2018-07-24T19:50:08.379Z,28.81
2018-07-24T19:52:39.501Z,28.77
2018-07-24T19:55:07.896Z,28.74
2018-07-24T19:57:40.031Z,28.63
2018-07-24T20:00:09.329Z,28.52
2018-07-24T20:02:38.689Z,27.92
2018-07-24T20:05:14.900Z,28.20
2018-07-24T20:07:43.064Z,28.13
2018-07-24T20:10:11.490Z,28.05
2018-07-24T20:12:39.992Z,27.96
2018-07-24T20:15:08.070Z,27.81
2018-07-24T20:17:36.935Z,27.70
2018-07-24T20:20:05.789Z,27.77
2018-07-24T20:22:34.360Z,27.70
2018-07-24T20:25:03.143Z,27.67
2018-07-24T20:27:31.232Z,27.61
2018-07-24T20:29:59.515Z,27.58
2018-07-24T20:32:28.141Z,27.55
2018-07-24T20:34:56.925Z,27.46
2018-07-24T20:37:32.223Z,27.31
2018-07-24T20:40:03.231Z,27.30
2018-07-24T20:42:32.788Z,27.37
2018-07-24T20:45:02.579Z,27.29
2018-07-24T20:47:31.965Z,27.22
2018-07-24T20:50:02.518Z,27.08
2018-07-24T20:52:32.434Z,27.08
2018-07-24T20:55:01.625Z,26.96
2018-07-24T20:57:31.308Z,26.83
2018-07-24T21:00:00.714Z,26.90
2018-07-24T21:02:30.461Z,26.85
2018-07-24T21:04:59.961Z,26.79
2018-07-24T21:07:34.109Z,26.73
2018-07-24T21:10:10.559Z,26.64
2018-07-24T21:12:39.689Z,26.56
2018-07-24T21:15:08.197Z,26.41
2018-07-24T21:17:37.482Z,26.38
2018-07-24T21:20:05.746Z,26.25
2018-07-24T21:22:33.890Z,26.26
2018-07-24T21:25:03.286Z,26.23
2018-07-24T21:27:32.471Z,26.19
2018-07-24T21:30:00.631Z,26.13
2018-07-24T21:32:29.003Z,26.08
2018-07-24T21:34:57.431Z,25.99
2018-07-24T21:37:25.793Z,25.94
2018-07-24T21:39:53.975Z,25.83
2018-07-24T21:42:23.130Z,25.84
2018-07-24T21:44:51.618Z,25.80
2018-07-24T21:47:19.780Z,25.56
2018-07-24T21:49:48.559Z,25.69
2018-07-24T21:52:17.004Z,25.64
2018-07-24T21:54:45.247Z,25.62
2018-07-24T21:57:14.232Z,25.59
2018-07-24T21:59:43.141Z,25.53
2018-07-24T22:02:12.101Z,25.40
2018-07-24T22:04:40.553Z,25.34
2018-07-24T22:07:08.584Z,25.34
2018-07-24T22:09:36.591Z,25.22
2018-07-24T22:12:05.011Z,25.11
2018-07-24T22:14:34.037Z,25.01
2018-07-24T22:17:03.025Z,24.74
2018-07-24T22:19:31.348Z,24.59
2018-07-24T22:21:59.586Z,24.42
2018-07-24T22:24:28.083Z,24.37
2018-07-24T22:26:56.684Z,24.21
2018-07-24T22:29:25.323Z,24.35
2018-07-24T22:31:54.040Z,24.32
2018-07-24T22:34:22.338Z,24.31
2018-07-24T22:36:51.406Z,24.27
2018-07-24T22:39:19.468Z,24.22
2018-07-24T22:41:47.746Z,24.19
2018-07-24T22:44:16.097Z,24.15
2018-07-24T22:46:44.195Z,24.11
2018-07-24T22:49:12.615Z,24.09
2018-07-24T22:51:40.703Z,24.06
2018-07-24T22:54:09.596Z,24.03
2018-07-24T22:56:37.951Z,24.02
2018-07-24T22:59:05.988Z,23.98
2018-07-24T23:01:34.090Z,23.88
2018-07-24T23:04:03.019Z,23.90
2018-07-24T23:06:31.512Z,23.87
2018-07-24T23:09:01.805Z,23.69
2018-07-24T23:11:30.580Z,23.82
2018-07-24T23:13:59.187Z,23.79
2018-07-24T23:16:27.300Z,23.77
2018-07-24T23:18:55.351Z,23.67
2018-07-24T23:21:23.806Z,23.71
2018-07-24T23:23:52.219Z,23.72
2018-07-24T23:26:20.771Z,23.65
2018-07-24T23:28:48.815Z,23.74
2018-07-24T23:31:16.957Z,23.76
2018-07-24T23:33:45.699Z,23.74
2018-07-24T23:36:14.789Z,23.85
2018-07-24T23:38:43.093Z,23.89
2018-07-24T23:41:11.464Z,23.89
2018-07-24T23:43:39.936Z,23.73
2018-07-24T23:46:08.870Z,23.80
2018-07-24T23:48:38.161Z,23.65
2018-07-24T23:51:06.654Z,23.53
2018-07-24T23:53:35.245Z,23.63
2018-07-24T23:56:03.719Z,23.50
2018-07-24T23:58:32.128Z,23.54
